Flight Track Log - Related Links

Times and Time Zones

All times are in EDT time to prevent confusion due to time zone crossing. See the N960DL flight status page for this flight to view local times or setup timezone preferences in your user account.

Time Position Orientation Groundspeed Altitude Reporting Facility
EDT Latitude Longitude Course Direction KTS MPH feet Rate Location/Type
Sat 02:22:34 PM 38.7333 -90.3167 130° Southeast 176 203 1,900  Level Gateway (St. Louis) TRACON
Sat 02:23:34 PM 38.6833 -90.2500 134° Southeast 243 280 3,200 1,546 Climbing Gateway (St. Louis) TRACON
Sat 02:24:11 PM 38.6683 -90.2208 123° Southeast 259 298 4,400 2,364 Climbing Kansas City Center
Sat 02:25:00 PM 38.4538 -89.9948 127° Southeast  Level Estimated
Sat 02:25:13 PM 38.5889 -90.1814 159° South 265 305 7,100  Level Kansas City Center
Sat 02:26:00 PM 38.4103 -89.8743 115° Southeast  Level FlightAware Approximate
Sat 02:26:15 PM 38.5122 -90.1522 163° South 278 320 9,800  Level Kansas City Center
Sat 02:27:00 PM 38.3359 -89.7816 130° Southeast  Level Estimated
Sat 02:27:17 PM 38.4342 -90.1153 160° South 295 339 12,000  Level Kansas City Center
Sat 02:28:19 PM 38.3742 -90.0047 125° Southeast 347 399 13,500 2,081 Climbing Kansas City Center
Sat 02:29:21 PM 38.3389 -89.8744 109° East 385 443 16,300 2,081 Climbing Kansas City Center
Sat 02:30:23 PM 38.2694 -89.7683 130° Southeast 393 452 17,800 1,742 Climbing Kansas City Center
Sat 02:31:25 PM 38.1856 -89.6403 130° Southeast 420 483 19,900 1,935 Climbing Kansas City Center
Sat 02:32:27 PM 38.1003 -89.5114 130° Southeast 440 506 21,800 1,694 Climbing Kansas City Center
Sat 02:33:29 PM 38.0200 -89.3900 130° Southeast 448 516 23,400 1,597 Climbing Kansas City Center
Sat 02:34:31 PM 37.9297 -89.2542 130° Southeast 466 536 25,100 1,742 Climbing Kansas City Center
Sat 02:35:33 PM 37.8461 -89.1283 130° Southeast 469 540 27,000 1,742 Climbing Kansas City Center
Sat 02:36:35 PM 37.7589 -88.9942 129° Southeast 468 539 28,700 1,984 Climbing Kansas City Center
Sat 02:37:37 PM 37.6781 -88.8747 131° Southeast 455 524 31,100 1,548 Climbing Kansas City Center
Sat 02:38:39 PM 37.6019 -88.7597 130° Southeast 434 499 31,900 726 Climbing Kansas City Center
Sat 02:39:41 PM 37.5217 -88.6450 131° Southeast 433 498 32,600 726 Climbing Kansas City Center
Sat 02:40:43 PM 37.4406 -88.5261 131° Southeast 437 503 33,400 968 Climbing Kansas City Center
Sat 02:41:45 PM 37.3586 -88.4089 131° Southeast 440 506 34,600 774 Climbing Kansas City Center
Sat 02:42:47 PM 37.2628 -88.2700 131° Southeast 440 506 35,000 194 Climbing Kansas City Center
Sat 02:43:49 PM 37.1831 -88.1578 132° Southeast 436 502 35,000  Level Kansas City Center
Sat 02:44:51 PM 37.1031 -88.0439 131° Southeast 435 501 35,000  Level Kansas City Center
Sat 02:45:53 PM 37.0233 -87.9289 131° Southeast 435 501 35,000  Level Kansas City Center
Sat 02:46:55 PM 36.9319 -87.8222 137° Southeast 442 509 35,000  Level Kansas City Center
Sat 02:48:07 PM 36.8242 -87.7003 138° Southeast 446 513 35,000  Level Memphis Center
Sat 02:49:07 PM 36.7322 -87.5972 138° Southeast 446 513 35,000  Level Memphis Center
Sat 02:50:07 PM 36.6383 -87.4944 139° Southeast 446 513 35,000  Level Memphis Center
Sat 02:51:07 PM 36.5442 -87.3917 139° Southeast 451 519 35,000  Level Memphis Center
Sat 02:52:07 PM 36.4522 -87.2919 139° Southeast 446 513 35,000  Level Memphis Center
Sat 02:53:07 PM 36.3578 -87.1925 140° Southeast 446 513 35,000  Level Memphis Center
Sat 02:54:07 PM 36.2614 -87.0933 140° Southeast 446 513 35,000 -600 Level Memphis Center
Sat 02:55:07 PM 36.1650 -86.9892 139° Southeast 453 521 33,800 -1,000 Descending Memphis Center
Sat 02:56:07 PM 36.0703 -86.8853 138° Southeast 453 521 33,000 -400 Descending Memphis Center
Sat 02:57:07 PM 35.9756 -86.7814 138° Southeast 453 521 33,000  Level Memphis Center
Sat 02:58:07 PM 35.8808 -86.6806 139° Southeast 446 513 33,000  Level Memphis Center
Sat 02:59:07 PM 35.7861 -86.5800 139° Southeast 446 513 33,000  Level Memphis Center
Sat 03:01:20 PM 35.5733 -86.3572 140° Southeast 456 525 33,000  Level Atlanta Center
Sat 03:02:20 PM 35.4772 -86.2550 139° Southeast 461 531 33,000  Level Atlanta Center
Sat 03:03:20 PM 35.3808 -86.1531 139° Southeast 455 524 33,000 -50 Level Atlanta Center
Sat 03:04:20 PM 35.2700 -86.0408 140° Southeast 455 524 32,900 -550 Descending Atlanta Center
Sat 03:05:20 PM 35.1942 -85.9575 138° Southeast 460 529 31,900 -1,000 Descending Atlanta Center
Sat 03:06:20 PM 35.0853 -85.8461 140° Southeast 465 535 30,900 -1,000 Descending Atlanta Center
Sat 03:07:20 PM 34.9761 -85.7575 146° Southeast 465 535 29,900 -1,000 Descending Atlanta Center
Sat 03:08:20 PM 34.8647 -85.6639 145° Southeast 477 549 28,900 -1,050 Descending Atlanta Center
Sat 03:09:20 PM 34.7531 -85.5708 146° Southeast 482 555 27,800 -1,450 Descending Atlanta Center
Sat 03:10:20 PM 34.6436 -85.4778 145° Southeast 482 555 26,000 -2,200 Descending Atlanta Center
Sat 03:11:20 PM 34.5361 -85.3903 146° Southeast 482 555 23,400 -2,700 Descending Atlanta Center
Sat 03:12:20 PM 34.4347 -85.3106 147° Southeast 459 528 20,600 -2,700 Descending Atlanta Center
Sat 03:13:20 PM 34.3436 -85.2314 144° Southeast 430 495 18,000 -1,850 Descending Atlanta Center
Sat 03:14:20 PM 34.2544 -85.1622 147° Southeast 401 461 16,900 -1,650 Descending Atlanta Center
Sat 03:15:20 PM 34.1611 -85.1258 162° South 363 418 14,700 -1,950 Descending Atlanta Center
Sat 03:16:20 PM 34.1011 -85.0447 132° Southeast 325 374 13,000 -1,050 Descending Atlanta Center
Sat 03:17:20 PM 34.0453 -84.9664 131° Southeast 309 356 12,600 -1,050 Descending Atlanta Center
Sat 03:18:20 PM 33.9894 -84.8981 135° Southeast 290 334 10,900 -1,600 Descending Atlanta Center
Sat 03:19:20 PM 33.9208 -84.8575 154° Southeast 261 300 9,400 -1,200 Descending Atlanta Center
Sat 03:20:20 PM 33.8417 -84.8567 179° South 279 321 8,500 -700 Descending Atlanta Center
Sat 03:21:20 PM 33.7644 -84.8508 176° South 284 327 8,000 -1,000 Descending Atlanta Center
Sat 03:22:20 PM 33.6831 -84.8353 171° South 284 327 6,500 -1,250 Descending Atlanta Center
Sat 03:23:20 PM 33.6481 -84.7750 125° Southeast 227 261 5,500 -800 Descending Atlanta Center
Sat 03:24:20 PM 33.6483 -84.7000 90° East 207 238 4,900 -650 Descending Atlanta Center
Sat 03:25:20 PM 33.6508 -84.6378 87° East 195 224 4,200 -700 Descending Atlanta Center

Login

Don't have an account? Register now (free) for customized features, flight alerts, and more!